Terminal Aerodrome Forecast
Issued by NWS Charleston, WV

Current Version | Previous Version | Text Only | Print | Product List | Glossary Off
Versions: 1 2 3 4 5 6 7 8 9 10 11 12 13 14 15 16 17 18 19 20 21 22 23 24 25 26 27 28 29 30

000
FTUS41 KRLX 312351
TAFBKW
TAF
KBKW 312351Z 0100/0124 22008KT P6SM BKN080
     FM010400 22005KT P6SM SCT090
     FM010700 29004KT P6SM BKN070
     FM010900 30005KT 5SM BR BKN060
     FM011100 31005KT 1 1/2SM BR BKN015
     FM011700 32004KT 3SM BR BKN018
     FM011800 32005KT 5SM SHRA VCTS BKN015CB
     FM012000 33006KT 6SM SHRA VCTS BKN020CB=

USA.gov is the U.S. government's official web portal to all federal, state and local government web resources and services.